sensor_id;sensor_type;location;lat;lon;timestamp;pressure;altitude;pressure_sealevel;temperature;humidity
5296;BME280;2670;42.720;23.336;2023-06-22T00:00:32;-18091.72;;;-145.34;79.49
5296;BME280;2670;42.720;23.336;2023-06-22T00:02:59;-18091.72;;;-145.34;79.39
5296;BME280;2670;42.720;23.336;2023-06-22T00:05:25;-18091.72;;;-145.34;79.55
5296;BME280;2670;42.720;23.336;2023-06-22T00:07:54;-18091.72;;;-145.34;80.22
5296;BME280;2670;42.720;23.336;2023-06-22T00:10:20;-18091.72;;;-145.34;80.59
5296;BME280;2670;42.720;23.336;2023-06-22T00:12:47;-18091.72;;;-145.34;80.63
5296;BME280;2670;42.720;23.336;2023-06-22T00:15:14;-18091.72;;;-145.34;81.08
5296;BME280;2670;42.720;23.336;2023-06-22T00:17:40;-18091.72;;;-145.34;81.71
5296;BME280;2670;42.720;23.336;2023-06-22T00:20:08;-18091.72;;;-145.34;82.50
5296;BME280;2670;42.720;23.336;2023-06-22T00:22:35;-18091.72;;;-145.34;83.19
5296;BME280;2670;42.720;23.336;2023-06-22T00:25:07;-18091.72;;;-145.34;84.16
5296;BME280;2670;42.720;23.336;2023-06-22T00:27:34;-18091.72;;;-145.34;83.74
5296;BME280;2670;42.720;23.336;2023-06-22T00:30:01;-18091.72;;;-145.34;83.55
5296;BME280;2670;42.720;23.336;2023-06-22T00:32:28;-18091.72;;;-145.34;82.71
5296;BME280;2670;42.720;23.336;2023-06-22T00:34:55;-18091.72;;;-145.34;81.32
5296;BME280;2670;42.720;23.336;2023-06-22T00:37:21;-18091.72;;;-145.34;81.14
5296;BME280;2670;42.720;23.336;2023-06-22T00:39:50;-18091.72;;;-145.34;80.58
5296;BME280;2670;42.720;23.336;2023-06-22T00:42:18;-18091.72;;;-145.34;80.70
5296;BME280;2670;42.720;23.336;2023-06-22T00:44:45;-18091.72;;;-145.34;80.23
5296;BME280;2670;42.720;23.336;2023-06-22T00:47:13;-18091.72;;;-145.34;79.56
5296;BME280;2670;42.720;23.336;2023-06-22T00:49:41;-18091.72;;;-145.34;79.28
5296;BME280;2670;42.720;23.336;2023-06-22T00:52:08;-18091.72;;;-145.34;78.86
5296;BME280;2670;42.720;23.336;2023-06-22T00:54:39;-18091.72;;;-145.34;78.69
5296;BME280;2670;42.720;23.336;2023-06-22T00:57:10;-18091.72;;;-145.34;78.73
5296;BME280;2670;42.720;23.336;2023-06-22T00:59:39;-18091.72;;;-145.34;78.23
5296;BME280;2670;42.720;23.336;2023-06-22T01:02:06;-18091.72;;;-145.34;78.08
5296;BME280;2670;42.720;23.336;2023-06-22T01:04:35;-18091.72;;;-145.34;78.13
5296;BME280;2670;42.720;23.336;2023-06-22T01:07:07;-18091.72;;;-145.34;78.26
5296;BME280;2670;42.720;23.336;2023-06-22T01:09:46;-18091.72;;;-145.34;78.44
5296;BME280;2670;42.720;23.336;2023-06-22T01:12:16;-18091.72;;;-145.34;79.00
5296;BME280;2670;42.720;23.336;2023-06-22T01:14:50;-18091.72;;;-145.34;79.06
5296;BME280;2670;42.720;23.336;2023-06-22T01:17:23;-18091.72;;;-145.34;79.39
5296;BME280;2670;42.720;23.336;2023-06-22T01:19:54;-18091.72;;;-145.34;79.81
5296;BME280;2670;42.720;23.336;2023-06-22T01:22:24;-18091.72;;;-145.34;80.42
5296;BME280;2670;42.720;23.336;2023-06-22T01:24:57;-18091.72;;;-145.34;81.33
5296;BME280;2670;42.720;23.336;2023-06-22T01:27:33;-18091.72;;;-145.34;81.23
5296;BME280;2670;42.720;23.336;2023-06-22T01:30:08;-18091.72;;;-145.34;81.49
5296;BME280;2670;42.720;23.336;2023-06-22T01:32:38;-18091.72;;;-145.34;81.49
5296;BME280;2670;42.720;23.336;2023-06-22T01:35:07;-18091.72;;;-145.34;81.57
5296;BME280;2670;42.720;23.336;2023-06-22T01:37:36;-18091.72;;;-145.34;82.14
5296;BME280;2670;42.720;23.336;2023-06-22T01:40:05;-18091.72;;;-145.34;81.81
5296;BME280;2670;42.720;23.336;2023-06-22T01:42:32;-18091.72;;;-145.34;81.72
5296;BME280;2670;42.720;23.336;2023-06-22T01:45:00;-18091.72;;;-145.34;82.16
5296;BME280;2670;42.720;23.336;2023-06-22T01:47:29;-18091.72;;;-145.34;82.84
5296;BME280;2670;42.720;23.336;2023-06-22T01:49:56;-18091.72;;;-145.34;83.98
5296;BME280;2670;42.720;23.336;2023-06-22T01:52:23;-18091.72;;;-145.34;84.30
5296;BME280;2670;42.720;23.336;2023-06-22T01:54:50;-18091.72;;;-145.34;83.93
5296;BME280;2670;42.720;23.336;2023-06-22T01:57:17;-18091.72;;;-145.34;85.01
5296;BME280;2670;42.720;23.336;2023-06-22T01:59:49;-18091.72;;;-145.34;85.23
5296;BME280;2670;42.720;23.336;2023-06-22T02:02:20;-18091.72;;;-145.34;84.94
5296;BME280;2670;42.720;23.336;2023-06-22T02:04:57;-18091.72;;;-145.34;85.91
5296;BME280;2670;42.720;23.336;2023-06-22T02:07:30;-18091.72;;;-145.34;85.74
5296;BME280;2670;42.720;23.336;2023-06-22T02:09:59;-18091.72;;;-145.34;86.21
5296;BME280;2670;42.720;23.336;2023-06-22T02:12:28;-18091.72;;;-145.34;87.40
5296;BME280;2670;42.720;23.336;2023-06-22T02:14:56;-18091.72;;;-145.34;88.31
5296;BME280;2670;42.720;23.336;2023-06-22T02:17:24;-18091.72;;;-145.34;88.25
5296;BME280;2670;42.720;23.336;2023-06-22T02:19:53;-18091.72;;;-145.34;88.21
5296;BME280;2670;42.720;23.336;2023-06-22T02:22:19;-18091.72;;;-145.34;88.64
5296;BME280;2670;42.720;23.336;2023-06-22T02:24:46;-18091.72;;;-145.34;88.46
5296;BME280;2670;42.720;23.336;2023-06-22T02:27:13;-18091.72;;;-145.34;88.44
5296;BME280;2670;42.720;23.336;2023-06-22T02:29:40;-18091.72;;;-145.34;88.43
5296;BME280;2670;42.720;23.336;2023-06-22T02:32:07;-18091.72;;;-145.34;87.81
5296;BME280;2670;42.720;23.336;2023-06-22T02:34:34;-18091.72;;;-145.34;87.93
5296;BME280;2670;42.720;23.336;2023-06-22T02:37:03;-18091.72;;;-145.34;88.08
5296;BME280;2670;42.720;23.336;2023-06-22T02:39:30;-18091.72;;;-145.34;88.29
5296;BME280;2670;42.720;23.336;2023-06-22T02:41:57;-18091.72;;;-145.34;88.42
5296;BME280;2670;42.720;23.336;2023-06-22T02:44:24;-18091.72;;;-145.34;88.54
5296;BME280;2670;42.720;23.336;2023-06-22T02:46:50;-18091.72;;;-145.34;88.62
5296;BME280;2670;42.720;23.336;2023-06-22T02:49:17;-18091.72;;;-145.34;88.69
5296;BME280;2670;42.720;23.336;2023-06-22T02:51:46;-18091.72;;;-145.34;84.78
5296;BME280;2670;42.720;23.336;2023-06-22T02:54:15;-18091.72;;;-145.34;85.44
5296;BME280;2670;42.720;23.336;2023-06-22T02:56:41;-18091.72;;;-145.34;86.88
5296;BME280;2670;42.720;23.336;2023-06-22T02:59:09;-18091.72;;;-145.34;87.45
5296;BME280;2670;42.720;23.336;2023-06-22T03:01:36;-18091.72;;;-145.34;88.39
5296;BME280;2670;42.720;23.336;2023-06-22T03:04:05;-18091.72;;;-145.34;87.75
5296;BME280;2670;42.720;23.336;2023-06-22T03:06:32;-18091.72;;;-145.34;87.90
5296;BME280;2670;42.720;23.336;2023-06-22T03:09:00;-18091.72;;;-145.34;88.52
5296;BME280;2670;42.720;23.336;2023-06-22T03:11:30;-18091.72;;;-145.34;89.06
5296;BME280;2670;42.720;23.336;2023-06-22T03:13:57;-18091.72;;;-145.34;89.74
5296;BME280;2670;42.720;23.336;2023-06-22T03:16:24;-18091.72;;;-145.34;89.86
5296;BME280;2670;42.720;23.336;2023-06-22T03:18:50;-18091.72;;;-145.34;89.92
5296;BME280;2670;42.720;23.336;2023-06-22T03:21:19;-18091.72;;;-145.34;90.22
5296;BME280;2670;42.720;23.336;2023-06-22T03:23:45;-18091.72;;;-145.34;90.91
5296;BME280;2670;42.720;23.336;2023-06-22T03:26:12;-18091.72;;;-145.34;89.45
5296;BME280;2670;42.720;23.336;2023-06-22T03:28:40;-18091.72;;;-145.34;88.28
5296;BME280;2670;42.720;23.336;2023-06-22T03:31:08;-18091.72;;;-145.34;86.40
5296;BME280;2670;42.720;23.336;2023-06-22T03:33:34;-18091.72;;;-145.34;87.57
5296;BME280;2670;42.720;23.336;2023-06-22T03:36:01;-18091.72;;;-145.34;87.78
5296;BME280;2670;42.720;23.336;2023-06-22T03:38:28;-18091.72;;;-145.34;85.64
5296;BME280;2670;42.720;23.336;2023-06-22T03:40:55;-18091.72;;;-145.34;85.71
5296;BME280;2670;42.720;23.336;2023-06-22T03:43:22;-18091.72;;;-145.34;84.64
5296;BME280;2670;42.720;23.336;2023-06-22T03:45:50;-18091.72;;;-145.34;86.24
5296;BME280;2670;42.720;23.336;2023-06-22T03:48:17;-18091.72;;;-145.34;87.17
5296;BME280;2670;42.720;23.336;2023-06-22T03:50:44;-18091.72;;;-145.34;85.31
5296;BME280;2670;42.720;23.336;2023-06-22T03:53:11;-18091.72;;;-145.34;86.06
5296;BME280;2670;42.720;23.336;2023-06-22T03:55:42;-18091.72;;;-145.34;86.08
5296;BME280;2670;42.720;23.336;2023-06-22T03:58:14;-18091.72;;;-145.34;86.39
5296;BME280;2670;42.720;23.336;2023-06-22T04:00:40;-18091.72;;;-145.34;87.10
5296;BME280;2670;42.720;23.336;2023-06-22T04:03:08;-18091.72;;;-145.34;87.62
5296;BME280;2670;42.720;23.336;2023-06-22T04:05:38;-18091.72;;;-145.34;85.37
5296;BME280;2670;42.720;23.336;2023-06-22T04:08:05;-18091.72;;;-145.34;86.30
5296;BME280;2670;42.720;23.336;2023-06-22T04:10:32;-18091.72;;;-145.34;87.60
5296;BME280;2670;42.720;23.336;2023-06-22T04:12:59;-18091.72;;;-145.34;86.71
5296;BME280;2670;42.720;23.336;2023-06-22T04:15:26;-18091.72;;;-145.34;85.73
5296;BME280;2670;42.720;23.336;2023-06-22T04:17:54;-18091.72;;;-145.34;86.13
5296;BME280;2670;42.720;23.336;2023-06-22T04:20:22;-18091.72;;;-145.34;85.97
5296;BME280;2670;42.720;23.336;2023-06-22T04:22:51;-18091.72;;;-145.34;84.89
5296;BME280;2670;42.720;23.336;2023-06-22T04:25:17;-18091.72;;;-145.34;85.00
5296;BME280;2670;42.720;23.336;2023-06-22T04:27:44;-18091.72;;;-145.34;85.44
5296;BME280;2670;42.720;23.336;2023-06-22T04:30:11;-18091.72;;;-145.34;85.57
5296;BME280;2670;42.720;23.336;2023-06-22T04:32:42;-18091.72;;;-145.34;83.47
5296;BME280;2670;42.720;23.336;2023-06-22T04:35:09;-18091.72;;;-145.34;82.87
5296;BME280;2670;42.720;23.336;2023-06-22T04:37:37;-18091.72;;;-145.34;83.37
5296;BME280;2670;42.720;23.336;2023-06-22T04:40:05;-18091.72;;;-145.34;83.51
5296;BME280;2670;42.720;23.336;2023-06-22T04:42:34;-18091.72;;;-145.34;83.15
5296;BME280;2670;42.720;23.336;2023-06-22T04:45:01;-18091.72;;;-145.34;81.81
5296;BME280;2670;42.720;23.336;2023-06-22T04:47:28;-18091.72;;;-145.34;80.60
5296;BME280;2670;42.720;23.336;2023-06-22T04:49:54;-18091.72;;;-145.34;81.36
5296;BME280;2670;42.720;23.336;2023-06-22T04:52:21;-18091.72;;;-145.34;81.36
5296;BME280;2670;42.720;23.336;2023-06-22T04:54:49;-18091.72;;;-145.34;81.02
5296;BME280;2670;42.720;23.336;2023-06-22T04:57:21;-18091.72;;;-145.34;81.01
5296;BME280;2670;42.720;23.336;2023-06-22T04:59:58;-18091.72;;;-145.34;81.52
5296;BME280;2670;42.720;23.336;2023-06-22T05:02:41;-18091.72;;;-145.34;81.97
5296;BME280;2670;42.720;23.336;2023-06-22T05:05:08;-18091.72;;;-145.34;81.82
5296;BME280;2670;42.720;23.336;2023-06-22T05:07:39;-18091.72;;;-145.34;80.72
5296;BME280;2670;42.720;23.336;2023-06-22T05:10:10;-18091.72;;;-145.34;81.59
5296;BME280;2670;42.720;23.336;2023-06-22T05:12:37;-18091.72;;;-145.34;78.29
5296;BME280;2670;42.720;23.336;2023-06-22T05:15:05;-18091.72;;;-145.34;77.08
5296;BME280;2670;42.720;23.336;2023-06-22T05:17:32;-18091.72;;;-145.34;77.60
5296;BME280;2670;42.720;23.336;2023-06-22T05:19:59;-18091.72;;;-145.34;77.59
5296;BME280;2670;42.720;23.336;2023-06-22T05:22:26;-18091.72;;;-145.34;78.27
5296;BME280;2670;42.720;23.336;2023-06-22T05:24:52;-18091.72;;;-145.34;78.77
5296;BME280;2670;42.720;23.336;2023-06-22T05:27:20;-18091.72;;;-145.34;78.21
5296;BME280;2670;42.720;23.336;2023-06-22T05:29:47;-18091.72;;;-145.34;77.77
5296;BME280;2670;42.720;23.336;2023-06-22T05:32:14;-18091.72;;;-145.34;77.79
5296;BME280;2670;42.720;23.336;2023-06-22T05:34:41;-18091.72;;;-145.34;78.08
5296;BME280;2670;42.720;23.336;2023-06-22T05:37:07;-18091.72;;;-145.34;78.62
5296;BME280;2670;42.720;23.336;2023-06-22T05:39:35;-18091.72;;;-145.34;79.74
5296;BME280;2670;42.720;23.336;2023-06-22T05:42:04;-18091.72;;;-145.34;79.21
5296;BME280;2670;42.720;23.336;2023-06-22T05:44:32;-18091.72;;;-145.34;77.94
5296;BME280;2670;42.720;23.336;2023-06-22T05:46:59;-18091.72;;;-145.34;78.11
5296;BME280;2670;42.720;23.336;2023-06-22T05:49:26;-18091.72;;;-145.34;79.06
5296;BME280;2670;42.720;23.336;2023-06-22T05:51:55;-18091.72;;;-145.34;78.08
5296;BME280;2670;42.720;23.336;2023-06-22T05:54:22;-18091.72;;;-145.34;76.56
5296;BME280;2670;42.720;23.336;2023-06-22T05:56:48;-18091.72;;;-145.34;76.44
5296;BME280;2670;42.720;23.336;2023-06-22T05:59:15;-18091.72;;;-145.34;77.28
5296;BME280;2670;42.720;23.336;2023-06-22T06:01:43;-18091.72;;;-145.34;78.84
5296;BME280;2670;42.720;23.336;2023-06-22T06:04:10;-18091.72;;;-145.34;75.94
5296;BME280;2670;42.720;23.336;2023-06-22T06:06:37;-18091.72;;;-145.34;77.56
5296;BME280;2670;42.720;23.336;2023-06-22T06:09:04;-18091.72;;;-145.34;76.89
5296;BME280;2670;42.720;23.336;2023-06-22T06:11:30;-18091.72;;;-145.34;76.82
5296;BME280;2670;42.720;23.336;2023-06-22T06:13:57;-18091.72;;;-145.34;76.35
5296;BME280;2670;42.720;23.336;2023-06-22T06:16:24;-18091.72;;;-145.34;74.53
5296;BME280;2670;42.720;23.336;2023-06-22T06:18:52;-18091.72;;;-145.34;75.59
5296;BME280;2670;42.720;23.336;2023-06-22T06:21:21;-18091.72;;;-145.34;74.60
5296;BME280;2670;42.720;23.336;2023-06-22T06:23:48;-18091.72;;;-145.34;73.94
5296;BME280;2670;42.720;23.336;2023-06-22T06:26:14;-18091.72;;;-145.34;75.73
5296;BME280;2670;42.720;23.336;2023-06-22T06:28:42;-18091.72;;;-145.34;74.50
5296;BME280;2670;42.720;23.336;2023-06-22T06:31:09;-18091.72;;;-145.34;74.11
5296;BME280;2670;42.720;23.336;2023-06-22T06:33:37;-18091.72;;;-145.34;71.93
5296;BME280;2670;42.720;23.336;2023-06-22T06:36:05;-18091.72;;;-145.34;72.91
5296;BME280;2670;42.720;23.336;2023-06-22T06:38:33;-18091.72;;;-145.34;72.36
5296;BME280;2670;42.720;23.336;2023-06-22T06:41:00;-18091.72;;;-145.34;70.79
5296;BME280;2670;42.720;23.336;2023-06-22T06:43:27;-18091.72;;;-145.34;71.21
5296;BME280;2670;42.720;23.336;2023-06-22T06:45:54;-18091.72;;;-145.34;71.24
5296;BME280;2670;42.720;23.336;2023-06-22T06:48:20;-18091.72;;;-145.34;69.07
5296;BME280;2670;42.720;23.336;2023-06-22T06:50:47;-18091.72;;;-145.34;69.31
5296;BME280;2670;42.720;23.336;2023-06-22T06:53:15;-18091.72;;;-145.34;69.14
5296;BME280;2670;42.720;23.336;2023-06-22T06:55:42;-18091.72;;;-145.34;68.71
5296;BME280;2670;42.720;23.336;2023-06-22T06:58:10;-18091.72;;;-145.34;68.64
5296;BME280;2670;42.720;23.336;2023-06-22T07:00:38;-18091.72;;;-145.34;68.70
5296;BME280;2670;42.720;23.336;2023-06-22T07:03:05;-18091.72;;;-145.34;68.10
5296;BME280;2670;42.720;23.336;2023-06-22T07:05:32;-18091.72;;;-145.34;68.99
5296;BME280;2670;42.720;23.336;2023-06-22T07:07:59;-18091.72;;;-145.34;69.48
5296;BME280;2670;42.720;23.336;2023-06-22T07:10:27;-18091.72;;;-145.34;67.81
5296;BME280;2670;42.720;23.336;2023-06-22T07:12:54;-18091.72;;;-145.34;65.03
5296;BME280;2670;42.720;23.336;2023-06-22T07:15:22;-18091.72;;;-145.34;65.68
5296;BME280;2670;42.720;23.336;2023-06-22T07:17:49;-18091.72;;;-145.34;66.32
5296;BME280;2670;42.720;23.336;2023-06-22T07:20:15;-18091.72;;;-145.34;66.54
5296;BME280;2670;42.720;23.336;2023-06-22T07:22:44;-18091.72;;;-145.34;66.66
5296;BME280;2670;42.720;23.336;2023-06-22T07:25:11;-18091.72;;;-145.34;66.76
5296;BME280;2670;42.720;23.336;2023-06-22T07:27:44;-18091.72;;;-145.34;66.74
5296;BME280;2670;42.720;23.336;2023-06-22T07:30:12;-18091.72;;;-145.34;64.65
5296;BME280;2670;42.720;23.336;2023-06-22T07:32:39;-18091.72;;;-145.34;66.17
5296;BME280;2670;42.720;23.336;2023-06-22T07:35:07;-18091.72;;;-145.34;63.96
5296;BME280;2670;42.720;23.336;2023-06-22T07:37:33;-18091.72;;;-145.34;66.23
5296;BME280;2670;42.720;23.336;2023-06-22T07:40:00;-18091.72;;;-145.34;66.88
5296;BME280;2670;42.720;23.336;2023-06-22T07:42:31;-18091.72;;;-145.34;66.60
5296;BME280;2670;42.720;23.336;2023-06-22T07:45:01;-18091.72;;;-145.34;65.98
5296;BME280;2670;42.720;23.336;2023-06-22T07:47:28;-18091.72;;;-145.34;66.87
5296;BME280;2670;42.720;23.336;2023-06-22T07:49:55;-18091.72;;;-145.34;63.93
5296;BME280;2670;42.720;23.336;2023-06-22T07:52:23;-18091.72;;;-145.34;65.99
5296;BME280;2670;42.720;23.336;2023-06-22T07:54:51;-18091.72;;;-145.34;65.80
5296;BME280;2670;42.720;23.336;2023-06-22T07:57:17;-18091.72;;;-145.34;61.60
5296;BME280;2670;42.720;23.336;2023-06-22T07:59:45;-18091.72;;;-145.34;63.44
5296;BME280;2670;42.720;23.336;2023-06-22T08:02:13;-18091.72;;;-145.34;64.36
5296;BME280;2670;42.720;23.336;2023-06-22T08:04:39;-18091.72;;;-145.34;62.74
5296;BME280;2670;42.720;23.336;2023-06-22T08:07:07;-18091.72;;;-145.34;63.46
5296;BME280;2670;42.720;23.336;2023-06-22T08:09:33;-18091.72;;;-145.34;63.06
5296;BME280;2670;42.720;23.336;2023-06-22T08:12:00;-18091.72;;;-145.34;62.76
5296;BME280;2670;42.720;23.336;2023-06-22T08:14:29;-18091.72;;;-145.34;65.02
5296;BME280;2670;42.720;23.336;2023-06-22T08:16:56;-18091.72;;;-145.34;63.42
5296;BME280;2670;42.720;23.336;2023-06-22T08:19:24;-18091.72;;;-145.34;61.34
5296;BME280;2670;42.720;23.336;2023-06-22T08:21:50;-18091.72;;;-145.34;59.56
5296;BME280;2670;42.720;23.336;2023-06-22T08:24:17;-18091.72;;;-145.34;60.10
5296;BME280;2670;42.720;23.336;2023-06-22T08:26:44;-18091.72;;;-145.34;59.66
5296;BME280;2670;42.720;23.336;2023-06-22T08:29:11;-18091.72;;;-145.34;59.57
5296;BME280;2670;42.720;23.336;2023-06-22T08:31:38;-18091.72;;;-145.34;60.93
5296;BME280;2670;42.720;23.336;2023-06-22T08:34:05;-18091.72;;;-145.34;60.12
5296;BME280;2670;42.720;23.336;2023-06-22T08:36:33;-18091.72;;;-145.34;58.79
5296;BME280;2670;42.720;23.336;2023-06-22T08:39:03;-18091.72;;;-145.34;59.15
5296;BME280;2670;42.720;23.336;2023-06-22T08:41:29;-18091.72;;;-145.34;59.78
5296;BME280;2670;42.720;23.336;2023-06-22T08:43:56;-18091.72;;;-145.34;59.94
5296;BME280;2670;42.720;23.336;2023-06-22T08:46:23;-18091.72;;;-145.34;58.71
5296;BME280;2670;42.720;23.336;2023-06-22T08:48:55;-18091.72;;;-145.34;59.25
5296;BME280;2670;42.720;23.336;2023-06-22T08:51:23;-18091.72;;;-145.34;58.89
5296;BME280;2670;42.720;23.336;2023-06-22T08:53:51;-18091.72;;;-145.34;59.11
5296;BME280;2670;42.720;23.336;2023-06-22T08:56:18;-18091.72;;;-145.34;57.15
5296;BME280;2670;42.720;23.336;2023-06-22T08:58:44;-18091.72;;;-145.34;55.15
5296;BME280;2670;42.720;23.336;2023-06-22T09:01:11;-18091.72;;;-145.34;56.51
5296;BME280;2670;42.720;23.336;2023-06-22T09:03:40;-18091.72;;;-145.34;56.78
5296;BME280;2670;42.720;23.336;2023-06-22T09:06:07;-18091.72;;;-145.34;59.12
5296;BME280;2670;42.720;23.336;2023-06-22T09:08:34;-18091.72;;;-145.34;58.03
5296;BME280;2670;42.720;23.336;2023-06-22T09:11:02;-18091.72;;;-145.34;56.92
5296;BME280;2670;42.720;23.336;2023-06-22T09:13:30;-18091.72;;;-145.34;57.75
5296;BME280;2670;42.720;23.336;2023-06-22T09:15:57;-18091.72;;;-145.34;56.35
5296;BME280;2670;42.720;23.336;2023-06-22T09:18:24;-18091.72;;;-145.34;55.81
5296;BME280;2670;42.720;23.336;2023-06-22T09:20:51;-18091.72;;;-145.34;56.77
5296;BME280;2670;42.720;23.336;2023-06-22T09:23:17;-18091.72;;;-145.34;55.12
5296;BME280;2670;42.720;23.336;2023-06-22T09:25:44;-18091.72;;;-145.34;55.06
5296;BME280;2670;42.720;23.336;2023-06-22T09:28:14;-18091.72;;;-145.34;53.47
5296;BME280;2670;42.720;23.336;2023-06-22T09:30:43;-18091.72;;;-145.34;54.16
5296;BME280;2670;42.720;23.336;2023-06-22T09:33:10;-18091.72;;;-145.34;53.38
5296;BME280;2670;42.720;23.336;2023-06-22T09:35:36;-18091.72;;;-145.34;53.05
5296;BME280;2670;42.720;23.336;2023-06-22T09:38:03;-18091.72;;;-145.34;54.07
5296;BME280;2670;42.720;23.336;2023-06-22T09:40:30;-18091.72;;;-145.34;54.77
5296;BME280;2670;42.720;23.336;2023-06-22T09:42:58;-18091.72;;;-145.34;54.27
5296;BME280;2670;42.720;23.336;2023-06-22T09:45:26;-18091.72;;;-145.34;54.46
5296;BME280;2670;42.720;23.336;2023-06-22T09:47:52;-18091.72;;;-145.34;54.40
5296;BME280;2670;42.720;23.336;2023-06-22T09:50:19;-18091.72;;;-145.34;54.70
5296;BME280;2670;42.720;23.336;2023-06-22T09:52:46;-18091.72;;;-145.34;53.75
5296;BME280;2670;42.720;23.336;2023-06-22T09:55:16;-18091.72;;;-145.34;52.36
5296;BME280;2670;42.720;23.336;2023-06-22T09:57:42;-18091.72;;;-145.34;52.79
5296;BME280;2670;42.720;23.336;2023-06-22T10:00:10;-18091.72;;;-145.34;53.19
5296;BME280;2670;42.720;23.336;2023-06-22T10:02:40;-18091.72;;;-145.34;52.82
5296;BME280;2670;42.720;23.336;2023-06-22T10:05:07;-18091.72;;;-145.34;52.53
5296;BME280;2670;42.720;23.336;2023-06-22T10:07:34;-18091.72;;;-145.34;51.69
5296;BME280;2670;42.720;23.336;2023-06-22T10:10:05;-18091.72;;;-145.34;52.54
5296;BME280;2670;42.720;23.336;2023-06-22T10:12:32;-18091.72;;;-145.34;51.82
5296;BME280;2670;42.720;23.336;2023-06-22T10:14:59;-18091.72;;;-145.34;51.91
5296;BME280;2670;42.720;23.336;2023-06-22T10:17:26;-18091.72;;;-145.34;50.73
5296;BME280;2670;42.720;23.336;2023-06-22T10:19:54;-18091.72;;;-145.34;50.84
5296;BME280;2670;42.720;23.336;2023-06-22T10:22:20;-18091.72;;;-145.34;49.19
5296;BME280;2670;42.720;23.336;2023-06-22T10:24:47;-18091.72;;;-145.34;51.27
5296;BME280;2670;42.720;23.336;2023-06-22T10:27:14;-18091.72;;;-145.34;47.83
5296;BME280;2670;42.720;23.336;2023-06-22T10:29:41;-18091.72;;;-145.34;48.24
5296;BME280;2670;42.720;23.336;2023-06-22T10:32:08;-18091.72;;;-145.34;49.16
5296;BME280;2670;42.720;23.336;2023-06-22T10:34:35;-18091.72;;;-145.34;49.79
5296;BME280;2670;42.720;23.336;2023-06-22T10:37:03;-18091.72;;;-145.34;47.69
5296;BME280;2670;42.720;23.336;2023-06-22T10:39:32;-18091.72;;;-145.34;49.41
5296;BME280;2670;42.720;23.336;2023-06-22T10:41:59;-18091.72;;;-145.34;48.38
5296;BME280;2670;42.720;23.336;2023-06-22T10:44:25;-18091.72;;;-145.34;48.56
5296;BME280;2670;42.720;23.336;2023-06-22T10:46:52;-18091.72;;;-145.34;48.06
5296;BME280;2670;42.720;23.336;2023-06-22T10:49:19;-18091.72;;;-145.34;47.62
5296;BME280;2670;42.720;23.336;2023-06-22T10:51:45;-18091.72;;;-145.34;46.80
5296;BME280;2670;42.720;23.336;2023-06-22T10:54:13;-18091.72;;;-145.34;46.09
5296;BME280;2670;42.720;23.336;2023-06-22T10:56:43;-18091.72;;;-145.34;47.24
5296;BME280;2670;42.720;23.336;2023-06-22T10:59:10;-18091.72;;;-145.34;46.57
5296;BME280;2670;42.720;23.336;2023-06-22T11:01:37;-18091.72;;;-145.34;45.73
5296;BME280;2670;42.720;23.336;2023-06-22T11:04:04;-18091.72;;;-145.34;47.35
5296;BME280;2670;42.720;23.336;2023-06-22T11:06:30;-18091.72;;;-145.34;48.47
5296;BME280;2670;42.720;23.336;2023-06-22T11:08:57;-18091.72;;;-145.34;45.29
5296;BME280;2670;42.720;23.336;2023-06-22T11:11:26;-18091.72;;;-145.34;44.97
5296;BME280;2670;42.720;23.336;2023-06-22T11:13:53;-18091.72;;;-145.34;46.23
5296;BME280;2670;42.720;23.336;2023-06-22T11:16:19;-18091.72;;;-145.34;48.24
5296;BME280;2670;42.720;23.336;2023-06-22T11:18:46;-18091.72;;;-145.34;48.29
5296;BME280;2670;42.720;23.336;2023-06-22T11:21:13;-18091.72;;;-145.34;47.88
5296;BME280;2670;42.720;23.336;2023-06-22T11:23:39;-18091.72;;;-145.34;47.67
5296;BME280;2670;42.720;23.336;2023-06-22T11:26:06;-18091.72;;;-145.34;46.82
5296;BME280;2670;42.720;23.336;2023-06-22T11:28:34;-18091.72;;;-145.34;46.29
5296;BME280;2670;42.720;23.336;2023-06-22T11:31:01;-18091.72;;;-145.34;47.59
5296;BME280;2670;42.720;23.336;2023-06-22T11:33:27;-18091.72;;;-145.34;46.98
5296;BME280;2670;42.720;23.336;2023-06-22T11:35:54;-18091.72;;;-145.34;46.27
5296;BME280;2670;42.720;23.336;2023-06-22T11:38:21;-18091.72;;;-145.34;48.01
5296;BME280;2670;42.720;23.336;2023-06-22T11:40:48;-18091.72;;;-145.34;47.65
5296;BME280;2670;42.720;23.336;2023-06-22T11:43:15;-18091.72;;;-145.34;48.47
5296;BME280;2670;42.720;23.336;2023-06-22T11:45:43;-18091.72;;;-145.34;48.40
5296;BME280;2670;42.720;23.336;2023-06-22T11:48:10;-18091.72;;;-145.34;46.72
5296;BME280;2670;42.720;23.336;2023-06-22T11:50:36;-18091.72;;;-145.34;47.37
5296;BME280;2670;42.720;23.336;2023-06-22T11:53:03;-18091.72;;;-145.34;46.96
5296;BME280;2670;42.720;23.336;2023-06-22T11:55:30;-18091.72;;;-145.34;49.36
5296;BME280;2670;42.720;23.336;2023-06-22T11:57:57;-18091.72;;;-145.34;46.60
5296;BME280;2670;42.720;23.336;2023-06-22T12:00:28;-18091.72;;;-145.34;45.02
5296;BME280;2670;42.720;23.336;2023-06-22T12:02:56;-18091.72;;;-145.34;45.75
5296;BME280;2670;42.720;23.336;2023-06-22T12:05:23;-18091.72;;;-145.34;46.60
5296;BME280;2670;42.720;23.336;2023-06-22T12:07:50;-18091.72;;;-145.34;47.08
5296;BME280;2670;42.720;23.336;2023-06-22T12:10:19;-18091.72;;;-145.34;46.18
5296;BME280;2670;42.720;23.336;2023-06-22T12:12:46;-18091.72;;;-145.34;46.23
5296;BME280;2670;42.720;23.336;2023-06-22T12:15:12;-18091.72;;;-145.34;46.54
5296;BME280;2670;42.720;23.336;2023-06-22T12:17:39;-18091.72;;;-145.34;48.36
5296;BME280;2670;42.720;23.336;2023-06-22T12:20:09;-18091.72;;;-145.34;48.74
5296;BME280;2670;42.720;23.336;2023-06-22T12:22:36;-18091.72;;;-145.34;48.44
5296;BME280;2670;42.720;23.336;2023-06-22T12:25:04;-18091.72;;;-145.34;49.29
5296;BME280;2670;42.720;23.336;2023-06-22T12:27:31;-18091.72;;;-145.34;50.97
5296;BME280;2670;42.720;23.336;2023-06-22T12:29:57;-18091.72;;;-145.34;53.77
5296;BME280;2670;42.720;23.336;2023-06-22T12:32:24;-18091.72;;;-145.34;55.97
5296;BME280;2670;42.720;23.336;2023-06-22T12:34:51;-18091.72;;;-145.34;56.58
5296;BME280;2670;42.720;23.336;2023-06-22T12:37:19;-18091.72;;;-145.34;56.96
5296;BME280;2670;42.720;23.336;2023-06-22T12:39:46;-18091.72;;;-145.34;57.31
5296;BME280;2670;42.720;23.336;2023-06-22T12:42:13;-18091.72;;;-145.34;57.67